createdAt,value
2023-11-06T00:03:58.301Z,94312.47
2023-11-06T00:08:59.915Z,94318.72
2023-11-06T00:14:01.949Z,94335.81
2023-11-06T00:19:03.780Z,94329.66
2023-11-06T00:24:06.973Z,94341.28
2023-11-06T00:29:08.603Z,94354.44
2023-11-06T00:34:10.347Z,94352.69
2023-11-06T00:39:13.637Z,94347.66
2023-11-06T00:44:15.335Z,94360.50
2023-11-06T00:49:16.979Z,94369.00
2023-11-06T00:54:18.767Z,94378.25
2023-11-06T00:59:21.766Z,94390.38
2023-11-06T01:04:23.485Z,94390.75
2023-11-06T01:09:25.865Z,94407.50
2023-11-06T01:14:27.520Z,94425.34
2023-11-06T01:19:29.181Z,94426.53
2023-11-06T01:24:31.129Z,94440.53
2023-11-06T01:29:32.789Z,94440.16
2023-11-06T01:34:34.420Z,94442.44
2023-11-06T01:39:36.031Z,94455.06
2023-11-06T01:44:38.495Z,94466.25
2023-11-06T01:49:41.495Z,94463.22
2023-11-06T01:54:43.388Z,94470.88
2023-11-06T01:59:45.435Z,94475.84
2023-11-06T02:04:50.847Z,94495.75
2023-11-06T02:09:53.746Z,94499.56
2023-11-06T02:14:56.549Z,94515.81
2023-11-06T02:20:00.305Z,94518.81
2023-11-06T02:25:01.954Z,94532.41
2023-11-06T02:30:03.932Z,94535.38
2023-11-06T02:35:08.887Z,94535.72
2023-11-06T02:40:13.486Z,94555.13
2023-11-06T02:45:15.541Z,94538.75
2023-11-06T02:50:17.248Z,94540.00
2023-11-06T02:55:18.862Z,94542.06
2023-11-06T03:00:22.042Z,94541.75
2023-11-06T03:05:23.898Z,94554.31
2023-11-06T03:10:25.721Z,94553.66
2023-11-06T03:15:27.313Z,94561.75
2023-11-06T03:20:28.909Z,94550.91
2023-11-06T03:25:30.537Z,94563.09
2023-11-06T03:30:32.125Z,94569.78
2023-11-06T03:35:33.857Z,94565.47
2023-11-06T03:40:35.460Z,94560.72
2023-11-06T03:45:37.022Z,94584.09
2023-11-06T03:50:43.863Z,94574.78
2023-11-06T03:55:45.465Z,94560.41
2023-11-06T04:00:48.004Z,94564.66
2023-11-06T04:05:49.694Z,94573.31
2023-11-06T04:10:51.382Z,94570.56
2023-11-06T04:15:52.958Z,94567.84
2023-11-06T04:20:55.535Z,94591.59
2023-11-06T04:25:57.277Z,94591.28
2023-11-06T04:30:58.865Z,94611.16
2023-11-06T04:36:00.557Z,94596.41
2023-11-06T04:41:02.191Z,94598.44
2023-11-06T04:46:04.340Z,94601.19
2023-11-06T04:51:06.523Z,94626.53
2023-11-06T04:56:08.655Z,94626.88
2023-11-06T05:01:10.339Z,94625.44
2023-11-06T05:06:11.950Z,94631.22
2023-11-06T05:11:14.086Z,94634.31
2023-11-06T05:16:15.758Z,94639.38
2023-11-06T05:21:27.454Z,94644.81
2023-11-06T05:26:29.018Z,94642.00
2023-11-06T05:31:30.903Z,94647.84
2023-11-06T05:36:32.481Z,94646.25
2023-11-06T05:41:34.128Z,94641.16
2023-11-06T05:46:35.666Z,94645.59
2023-11-06T05:51:38.958Z,94649.06
2023-11-06T05:56:40.488Z,94653.81
2023-11-06T06:01:42.030Z,94665.13
2023-11-06T06:06:43.753Z,94670.59
2023-11-06T06:11:46.607Z,94682.97
2023-11-06T06:16:50.572Z,94693.16
2023-11-06T06:21:52.241Z,94701.03
2023-11-06T06:26:53.865Z,94710.78
2023-11-06T06:31:56.051Z,94736.84
2023-11-06T06:36:57.686Z,94725.97
2023-11-06T06:41:59.268Z,94748.91
2023-11-06T06:47:00.855Z,94735.72
2023-11-06T06:52:02.587Z,94745.44
2023-11-06T06:57:05.376Z,94753.47
2023-11-06T07:02:07.003Z,94765.94
2023-11-06T07:07:08.758Z,94765.09
2023-11-06T07:12:10.387Z,94787.59
2023-11-06T07:17:12.016Z,94792.94
2023-11-06T07:22:13.610Z,94800.25
2023-11-06T07:27:15.291Z,94804.09
2023-11-06T07:32:17.100Z,94808.66
2023-11-06T07:37:18.817Z,94831.53
2023-11-06T07:42:20.408Z,94820.97
2023-11-06T07:47:22.026Z,94832.13
2023-11-06T07:52:23.635Z,94828.50
2023-11-06T07:57:27.436Z,94834.22
2023-11-06T08:02:30.828Z,94833.38
2023-11-06T08:07:32.547Z,94835.63
2023-11-06T08:12:34.865Z,94848.00
2023-11-06T08:17:37.096Z,94853.75
2023-11-06T08:22:39.203Z,94859.06
2023-11-06T08:27:40.921Z,94876.59
2023-11-06T08:32:42.727Z,94879.22
2023-11-06T08:37:44.408Z,94889.53
2023-11-06T08:42:46.366Z,94898.41
2023-11-06T08:47:48.060Z,94895.50
2023-11-06T08:52:49.822Z,94924.78
2023-11-06T08:57:51.502Z,94921.47
2023-11-06T09:02:53.274Z,94925.63
2023-11-06T09:07:54.957Z,94930.19
2023-11-06T09:12:58.528Z,94953.44
2023-11-06T09:18:00.319Z,94943.56
2023-11-06T09:23:02.306Z,94954.38
2023-11-06T09:28:04.152Z,94957.69
2023-11-06T09:33:06.527Z,94981.44
2023-11-06T09:38:09.568Z,94965.78
2023-11-06T09:43:12.210Z,94977.50
2023-11-06T09:48:19.651Z,95000.00
2023-11-06T09:53:24.256Z,95012.41
2023-11-06T09:58:26.506Z,95003.13
2023-11-06T10:03:28.999Z,95006.81
2023-11-06T10:08:32.051Z,95002.38
2023-11-06T10:13:51.258Z,95009.34
2023-11-06T10:19:13.659Z,95008.50
2023-11-06T10:24:16.897Z,95004.53
2023-11-06T10:29:20.116Z,95005.53
2023-11-06T10:34:29.852Z,95019.50
2023-11-06T10:39:32.782Z,95017.97
2023-11-06T10:44:36.070Z,95021.53
2023-11-06T10:50:02.615Z,95005.81
2023-11-06T10:55:12.371Z,95009.59
2023-11-06T11:00:25.050Z,95004.00
2023-11-06T11:05:32.898Z,95004.84
2023-11-06T11:10:37.104Z,94997.81
2023-11-06T11:15:42.268Z,94995.22
2023-11-06T11:20:51.329Z,94997.72
2023-11-06T11:26:05.357Z,94990.16
2023-11-06T11:31:33.557Z,94985.03
2023-11-06T11:36:37.116Z,94989.66
2023-11-06T11:41:40.239Z,94996.72
2023-11-06T11:46:48.865Z,95007.69
2023-11-06T11:51:51.162Z,94995.75
2023-11-06T11:56:53.349Z,94994.69
2023-11-06T12:01:55.181Z,95008.88
2023-11-06T12:06:59.496Z,95009.53
2023-11-06T12:12:01.101Z,95012.53
2023-11-06T12:17:07.979Z,95014.66
2023-11-06T12:22:16.199Z,95001.09
2023-11-06T12:27:19.445Z,95004.09
2023-11-06T12:32:23.604Z,95006.44
2023-11-06T12:37:25.945Z,95008.75
2023-11-06T12:42:29.752Z,95001.06
2023-11-06T12:47:35.687Z,95005.31
2023-11-06T12:52:40.071Z,94999.78
2023-11-06T12:57:44.716Z,94983.44
2023-11-06T13:02:47.316Z,94979.56
2023-11-06T13:07:52.739Z,94985.66
2023-11-06T13:12:54.430Z,94982.16
2023-11-06T13:17:56.748Z,94986.78
2023-11-06T13:22:59.773Z,94989.00
2023-11-06T13:28:02.752Z,94989.81
2023-11-06T13:33:08.572Z,94997.44
2023-11-06T13:38:10.622Z,95001.97
2023-11-06T13:43:12.961Z,95000.69
2023-11-06T13:48:14.640Z,95010.38
2023-11-06T13:53:25.994Z,95019.38
2023-11-06T13:58:29.268Z,95020.25
2023-11-06T14:03:31.016Z,95017.91
2023-11-06T14:08:33.585Z,95023.84
2023-11-06T14:13:35.178Z,95016.28
2023-11-06T14:18:36.820Z,95030.25
2023-11-06T14:23:38.804Z,95037.72
2023-11-06T14:28:40.470Z,95020.50
2023-11-06T14:33:42.086Z,95028.47
2023-11-06T14:38:43.813Z,95010.13
2023-11-06T14:43:45.439Z,95011.25
2023-11-06T14:48:50.781Z,95005.81
2023-11-06T14:53:58.492Z,95001.44
2023-11-06T14:59:00.556Z,94993.47
2023-11-06T15:04:03.047Z,95000.06
2023-11-06T15:09:04.801Z,95004.38
2023-11-06T15:14:07.548Z,95009.41
2023-11-06T15:19:11.234Z,95008.31
2023-11-06T15:24:14.276Z,95012.25
2023-11-06T15:29:16.056Z,95013.19
2023-11-06T15:34:18.284Z,95007.38
2023-11-06T15:39:22.461Z,95003.94
2023-11-06T15:44:24.670Z,95006.00
2023-11-06T15:49:27.803Z,95015.94
2023-11-06T15:54:34.262Z,95020.75
2023-11-06T15:59:36.125Z,95014.13
2023-11-06T16:04:38.000Z,95016.53
2023-11-06T16:09:43.113Z,95013.03
2023-11-06T16:14:45.247Z,95024.44
2023-11-06T16:19:46.895Z,95039.34
2023-11-06T16:24:48.483Z,95073.97
2023-11-06T16:29:50.589Z,95108.78
2023-11-06T16:34:52.504Z,95105.63
2023-11-06T16:39:54.240Z,95089.88
2023-11-06T16:44:55.806Z,95077.03
2023-11-06T16:49:57.508Z,95081.72
2023-11-06T16:54:59.243Z,95080.31
2023-11-06T17:00:00.856Z,95079.19
2023-11-06T17:05:05.991Z,95071.81
2023-11-06T17:10:08.281Z,95080.16
2023-11-06T17:15:11.409Z,95073.63
2023-11-06T17:20:14.111Z,95091.22
2023-11-06T17:25:15.965Z,95094.03
2023-11-06T17:30:17.789Z,95100.00
2023-11-06T17:35:19.536Z,95099.63
2023-11-06T17:40:21.328Z,95097.38
2023-11-06T17:45:22.967Z,95096.25
2023-11-06T17:50:24.545Z,95100.94
2023-11-06T17:55:26.886Z,95096.66
2023-11-06T18:00:28.548Z,95110.78
2023-11-06T18:05:30.192Z,95119.47
2023-11-06T18:10:31.785Z,95127.72
2023-11-06T18:15:33.539Z,95127.75
2023-11-06T18:20:35.116Z,95141.84
2023-11-06T18:25:37.071Z,95140.72
2023-11-06T18:30:40.777Z,95153.63
2023-11-06T18:35:43.527Z,95161.06
2023-11-06T18:40:47.598Z,95167.72
2023-11-06T18:45:49.310Z,95176.75
2023-11-06T18:50:50.937Z,95177.59
2023-11-06T18:55:52.800Z,95177.69
2023-11-06T19:00:54.411Z,95177.00
2023-11-06T19:05:56.516Z,95184.50
2023-11-06T19:11:00.905Z,95189.28
2023-11-06T19:16:03.390Z,95198.38
2023-11-06T19:21:05.606Z,95208.56
2023-11-06T19:26:07.231Z,95198.09
2023-11-06T19:31:09.080Z,95196.94
2023-11-06T19:36:11.541Z,95197.81
2023-11-06T19:41:13.205Z,95208.41
2023-11-06T19:46:15.416Z,95219.84
2023-11-06T19:51:17.045Z,95225.03
2023-11-06T19:56:19.347Z,95229.78
2023-11-06T20:01:21.024Z,95249.38
2023-11-06T20:06:22.873Z,95257.19
2023-11-06T20:11:24.553Z,95268.22
2023-11-06T20:16:26.267Z,95276.75
2023-11-06T20:21:32.658Z,95286.91
2023-11-06T20:26:34.705Z,95308.78
2023-11-06T20:31:36.538Z,95320.09
2023-11-06T20:36:42.709Z,95321.34
2023-11-06T20:41:45.567Z,95325.22
2023-11-06T20:46:47.976Z,95327.97
2023-11-06T20:51:49.920Z,95326.03
2023-11-06T20:56:51.535Z,95327.63
2023-11-06T21:01:53.153Z,95333.09
2023-11-06T21:06:54.738Z,95316.72
2023-11-06T21:11:56.337Z,95322.94
2023-11-06T21:16:57.959Z,95327.22
2023-11-06T21:21:59.633Z,95329.94
2023-11-06T21:27:01.454Z,95336.53
2023-11-06T21:32:04.067Z,95347.91
2023-11-06T21:37:05.933Z,95350.63
2023-11-06T21:42:08.367Z,95362.75
2023-11-06T21:47:12.029Z,95375.31
2023-11-06T21:52:13.654Z,95383.53
2023-11-06T21:57:15.240Z,95384.69
2023-11-06T22:02:16.909Z,95391.38
2023-11-06T22:07:19.302Z,95385.13
2023-11-06T22:12:21.101Z,95399.56
2023-11-06T22:17:22.771Z,95396.84
2023-11-06T22:22:24.445Z,95408.56
2023-11-06T22:27:27.407Z,95415.16
2023-11-06T22:32:29.067Z,95407.75
2023-11-06T22:37:30.704Z,95409.31
2023-11-06T22:42:34.486Z,95418.25
2023-11-06T22:47:36.228Z,95428.81
2023-11-06T22:52:39.521Z,95446.03
2023-11-06T22:57:41.771Z,95439.06
2023-11-06T23:02:43.797Z,95450.41
2023-11-06T23:07:45.486Z,95449.22
2023-11-06T23:12:47.157Z,95459.38
2023-11-06T23:17:49.027Z,95472.28
2023-11-06T23:22:50.736Z,95476.16
2023-11-06T23:27:53.560Z,95472.28
2023-11-06T23:32:55.280Z,95469.94
2023-11-06T23:37:57.075Z,95477.72
2023-11-06T23:42:58.726Z,95479.69
2023-11-06T23:48:00.700Z,95483.22
2023-11-06T23:53:03.419Z,95486.72
2023-11-06T23:58:05.078Z,95485.59
